San Angelo, Texas
Current Conditions -  °F | °C
As of 5:51 PM on Monday 20 Oct 2014 (Local Time) from KSJT Reporting Station
Few Clouds Few Clouds  
Wind Chill: 27°   Ceiling: Unl
Heat Index: 27°   Visibility: 10mi
Dew Point: 11°   Wind: 12mph
Humidity: 38%   Direction: 90°E
Pressure: 30.01"   Gusts: NA
Location:  31.46°N, 100.44°W
Report Text: KSJT 202251Z 09010KT 10SM FEW060 27/11 A3001 RMK AO2 SLP146 T02670111
Loading
Personal Weather Stations






























Interactive Weather Map New forecast layout! Learn more

10-Day Weather Forecast

Advertisements
Track Severe Weather on mobile